sensor_id;sensor_type;location;lat;lon;timestamp;P1;durP1;ratioP1;P2;durP2;ratioP2
71303;SDS011;59091;47.446;19.148;2023-01-04T00:01:05;7.72;;;4.72;;
71303;SDS011;59091;47.446;19.148;2023-01-04T00:03:32;7.60;;;4.60;;
71303;SDS011;59091;47.446;19.148;2023-01-04T00:05:58;8.38;;;4.75;;
71303;SDS011;59091;47.446;19.148;2023-01-04T00:08:25;5.63;;;4.18;;
71303;SDS011;59091;47.446;19.148;2023-01-04T00:10:51;6.72;;;4.50;;
71303;SDS011;59091;47.446;19.148;2023-01-04T00:13:16;6.57;;;4.65;;
71303;SDS011;59091;47.446;19.148;2023-01-04T00:15:41;9.40;;;4.75;;
71303;SDS011;59091;47.446;19.148;2023-01-04T00:18:07;12.57;;;6.00;;
71303;SDS011;59091;47.446;19.148;2023-01-04T00:20:32;7.55;;;4.68;;
71303;SDS011;59091;47.446;19.148;2023-01-04T00:22:58;9.98;;;5.55;;
71303;SDS011;59091;47.446;19.148;2023-01-04T00:25:24;8.77;;;5.20;;
71303;SDS011;59091;47.446;19.148;2023-01-04T00:27:50;8.55;;;5.03;;
71303;SDS011;59091;47.446;19.148;2023-01-04T00:30:16;9.15;;;5.28;;
71303;SDS011;59091;47.446;19.148;2023-01-04T00:32:42;11.45;;;5.38;;
71303;SDS011;59091;47.446;19.148;2023-01-04T00:35:08;10.52;;;5.57;;
71303;SDS011;59091;47.446;19.148;2023-01-04T00:37:34;8.25;;;5.18;;
71303;SDS011;59091;47.446;19.148;2023-01-04T00:39:59;6.70;;;4.68;;
71303;SDS011;59091;47.446;19.148;2023-01-04T00:42:24;8.60;;;4.72;;
71303;SDS011;59091;47.446;19.148;2023-01-04T00:44:50;7.65;;;5.13;;
71303;SDS011;59091;47.446;19.148;2023-01-04T00:47:15;7.55;;;5.32;;
71303;SDS011;59091;47.446;19.148;2023-01-04T00:49:41;7.90;;;4.95;;
71303;SDS011;59091;47.446;19.148;2023-01-04T00:52:06;7.28;;;5.25;;
71303;SDS011;59091;47.446;19.148;2023-01-04T00:54:32;6.80;;;4.90;;
71303;SDS011;59091;47.446;19.148;2023-01-04T00:56:57;5.75;;;4.68;;
71303;SDS011;59091;47.446;19.148;2023-01-04T00:59:23;7.93;;;5.03;;
71303;SDS011;59091;47.446;19.148;2023-01-04T01:01:49;9.80;;;5.80;;
71303;SDS011;59091;47.446;19.148;2023-01-04T01:04:15;11.48;;;5.90;;
71303;SDS011;59091;47.446;19.148;2023-01-04T01:06:42;9.43;;;5.57;;
71303;SDS011;59091;47.446;19.148;2023-01-04T01:09:08;11.95;;;6.03;;
71303;SDS011;59091;47.446;19.148;2023-01-04T01:11:34;9.85;;;6.05;;
71303;SDS011;59091;47.446;19.148;2023-01-04T01:14:01;9.98;;;5.88;;
71303;SDS011;59091;47.446;19.148;2023-01-04T01:16:27;7.35;;;5.30;;
71303;SDS011;59091;47.446;19.148;2023-01-04T01:18:52;10.15;;;6.18;;
71303;SDS011;59091;47.446;19.148;2023-01-04T01:21:20;11.65;;;6.75;;
71303;SDS011;59091;47.446;19.148;2023-01-04T01:23:47;10.43;;;6.35;;
71303;SDS011;59091;47.446;19.148;2023-01-04T01:26:14;9.30;;;5.82;;
71303;SDS011;59091;47.446;19.148;2023-01-04T01:28:45;10.60;;;5.95;;
71303;SDS011;59091;47.446;19.148;2023-01-04T01:31:15;12.20;;;6.28;;
71303;SDS011;59091;47.446;19.148;2023-01-04T01:33:43;10.13;;;6.28;;
71303;SDS011;59091;47.446;19.148;2023-01-04T01:36:10;9.07;;;5.80;;
71303;SDS011;59091;47.446;19.148;2023-01-04T01:38:36;8.65;;;6.05;;
71303;SDS011;59091;47.446;19.148;2023-01-04T01:41:03;10.77;;;6.10;;
71303;SDS011;59091;47.446;19.148;2023-01-04T01:44:04;11.05;;;6.05;;
71303;SDS011;59091;47.446;19.148;2023-01-04T01:48:52;9.57;;;5.93;;
71303;SDS011;59091;47.446;19.148;2023-01-04T01:51:20;12.10;;;6.07;;
71303;SDS011;59091;47.446;19.148;2023-01-04T01:53:48;9.52;;;6.00;;
71303;SDS011;59091;47.446;19.148;2023-01-04T01:56:18;11.18;;;5.63;;
71303;SDS011;59091;47.446;19.148;2023-01-04T01:58:44;12.38;;;6.22;;
71303;SDS011;59091;47.446;19.148;2023-01-04T02:01:15;8.40;;;6.13;;
71303;SDS011;59091;47.446;19.148;2023-01-04T02:03:42;10.68;;;5.60;;
71303;SDS011;59091;47.446;19.148;2023-01-04T02:06:09;12.25;;;6.05;;
71303;SDS011;59091;47.446;19.148;2023-01-04T02:08:37;9.13;;;6.13;;
71303;SDS011;59091;47.446;19.148;2023-01-04T02:11:04;11.20;;;6.25;;
71303;SDS011;59091;47.446;19.148;2023-01-04T02:13:30;9.80;;;6.00;;
71303;SDS011;59091;47.446;19.148;2023-01-04T02:35:31;10.55;;;6.45;;
71303;SDS011;59091;47.446;19.148;2023-01-04T02:40:48;11.57;;;7.10;;
71303;SDS011;59091;47.446;19.148;2023-01-04T02:45:39;14.30;;;7.65;;
71303;SDS011;59091;47.446;19.148;2023-01-04T02:48:08;9.85;;;6.57;;
71303;SDS011;59091;47.446;19.148;2023-01-04T02:50:53;11.48;;;7.15;;
71303;SDS011;59091;47.446;19.148;2023-01-04T02:53:22;14.45;;;6.90;;
71303;SDS011;59091;47.446;19.148;2023-01-04T03:01:41;13.13;;;7.28;;
71303;SDS011;59091;47.446;19.148;2023-01-04T03:04:50;10.68;;;6.80;;
71303;SDS011;59091;47.446;19.148;2023-01-04T03:10:51;12.27;;;6.88;;
71303;SDS011;59091;47.446;19.148;2023-01-04T03:13:39;11.02;;;6.72;;
71303;SDS011;59091;47.446;19.148;2023-01-04T03:16:12;12.18;;;6.30;;
71303;SDS011;59091;47.446;19.148;2023-01-04T03:18:45;11.35;;;6.70;;
71303;SDS011;59091;47.446;19.148;2023-01-04T03:21:14;10.10;;;6.43;;
71303;SDS011;59091;47.446;19.148;2023-01-04T03:23:41;10.98;;;6.50;;
71303;SDS011;59091;47.446;19.148;2023-01-04T03:26:42;9.43;;;6.53;;
71303;SDS011;59091;47.446;19.148;2023-01-04T03:35:45;13.75;;;6.95;;
71303;SDS011;59091;47.446;19.148;2023-01-04T03:38:14;13.63;;;7.13;;
71303;SDS011;59091;47.446;19.148;2023-01-04T03:41:15;14.13;;;6.82;;
71303;SDS011;59091;47.446;19.148;2023-01-04T03:47:18;13.43;;;6.85;;
71303;SDS011;59091;47.446;19.148;2023-01-04T03:50:43;11.02;;;6.88;;
71303;SDS011;59091;47.446;19.148;2023-01-04T03:53:15;11.43;;;6.82;;
71303;SDS011;59091;47.446;19.148;2023-01-04T03:55:40;14.60;;;7.25;;
71303;SDS011;59091;47.446;19.148;2023-01-04T03:58:07;15.18;;;7.20;;
71303;SDS011;59091;47.446;19.148;2023-01-04T04:00:33;14.02;;;8.07;;
71303;SDS011;59091;47.446;19.148;2023-01-04T04:02:59;12.20;;;7.05;;
71303;SDS011;59091;47.446;19.148;2023-01-04T04:05:31;15.50;;;8.07;;
71303;SDS011;59091;47.446;19.148;2023-01-04T04:08:18;12.77;;;6.47;;
71303;SDS011;59091;47.446;19.148;2023-01-04T04:10:53;9.90;;;6.20;;
71303;SDS011;59091;47.446;19.148;2023-01-04T04:13:44;13.20;;;6.90;;
71303;SDS011;59091;47.446;19.148;2023-01-04T04:16:10;13.13;;;7.05;;
71303;SDS011;59091;47.446;19.148;2023-01-04T04:18:35;13.50;;;6.90;;
71303;SDS011;59091;47.446;19.148;2023-01-04T04:21:01;11.80;;;6.95;;
71303;SDS011;59091;47.446;19.148;2023-01-04T04:23:26;14.07;;;6.93;;
71303;SDS011;59091;47.446;19.148;2023-01-04T04:25:53;11.20;;;6.75;;
71303;SDS011;59091;47.446;19.148;2023-01-04T04:28:18;12.32;;;7.22;;
71303;SDS011;59091;47.446;19.148;2023-01-04T04:30:43;16.00;;;7.80;;
71303;SDS011;59091;47.446;19.148;2023-01-04T04:33:09;15.00;;;8.32;;
71303;SDS011;59091;47.446;19.148;2023-01-04T04:35:34;13.32;;;7.35;;
71303;SDS011;59091;47.446;19.148;2023-01-04T04:38:00;14.48;;;7.80;;
71303;SDS011;59091;47.446;19.148;2023-01-04T04:40:25;16.33;;;8.30;;
71303;SDS011;59091;47.446;19.148;2023-01-04T04:43:09;12.10;;;7.50;;
71303;SDS011;59091;47.446;19.148;2023-01-04T04:45:34;14.30;;;6.68;;
71303;SDS011;59091;47.446;19.148;2023-01-04T04:47:59;13.05;;;7.93;;
71303;SDS011;59091;47.446;19.148;2023-01-04T04:50:25;13.25;;;7.57;;
71303;SDS011;59091;47.446;19.148;2023-01-04T04:52:50;12.48;;;7.43;;
71303;SDS011;59091;47.446;19.148;2023-01-04T04:55:16;16.88;;;7.82;;
71303;SDS011;59091;47.446;19.148;2023-01-04T04:57:41;14.50;;;7.68;;
71303;SDS011;59091;47.446;19.148;2023-01-04T05:00:07;16.00;;;7.60;;
71303;SDS011;59091;47.446;19.148;2023-01-04T05:02:33;13.73;;;8.18;;
71303;SDS011;59091;47.446;19.148;2023-01-04T05:04:58;12.20;;;7.75;;
71303;SDS011;59091;47.446;19.148;2023-01-04T05:07:24;12.20;;;7.30;;
71303;SDS011;59091;47.446;19.148;2023-01-04T05:09:49;13.18;;;7.95;;
71303;SDS011;59091;47.446;19.148;2023-01-04T05:12:14;18.23;;;9.45;;
71303;SDS011;59091;47.446;19.148;2023-01-04T05:14:58;21.92;;;10.75;;
71303;SDS011;59091;47.446;19.148;2023-01-04T05:17:24;17.77;;;10.25;;
71303;SDS011;59091;47.446;19.148;2023-01-04T05:19:49;20.08;;;11.50;;
71303;SDS011;59091;47.446;19.148;2023-01-04T05:22:14;23.27;;;10.70;;
71303;SDS011;59091;47.446;19.148;2023-01-04T05:24:40;21.58;;;11.63;;
71303;SDS011;59091;47.446;19.148;2023-01-04T05:27:05;23.90;;;11.40;;
71303;SDS011;59091;47.446;19.148;2023-01-04T05:29:31;18.65;;;10.23;;
71303;SDS011;59091;47.446;19.148;2023-01-04T05:32:15;18.17;;;9.88;;
71303;SDS011;59091;47.446;19.148;2023-01-04T05:34:40;21.38;;;10.20;;
71303;SDS011;59091;47.446;19.148;2023-01-04T05:37:05;20.30;;;10.68;;
71303;SDS011;59091;47.446;19.148;2023-01-04T05:39:31;20.20;;;11.10;;
71303;SDS011;59091;47.446;19.148;2023-01-04T05:41:56;21.42;;;10.57;;
71303;SDS011;59091;47.446;19.148;2023-01-04T05:44:40;20.55;;;10.38;;
71303;SDS011;59091;47.446;19.148;2023-01-04T05:47:06;19.23;;;10.25;;
71303;SDS011;59091;47.446;19.148;2023-01-04T05:49:31;18.20;;;9.98;;
71303;SDS011;59091;47.446;19.148;2023-01-04T05:51:56;17.45;;;9.48;;
71303;SDS011;59091;47.446;19.148;2023-01-04T05:54:22;19.25;;;10.85;;
71303;SDS011;59091;47.446;19.148;2023-01-04T05:56:47;19.77;;;10.38;;
71303;SDS011;59091;47.446;19.148;2023-01-04T05:59:13;16.38;;;10.02;;
71303;SDS011;59091;47.446;19.148;2023-01-04T06:01:39;18.83;;;10.55;;
71303;SDS011;59091;47.446;19.148;2023-01-04T06:04:04;19.35;;;10.48;;
71303;SDS011;59091;47.446;19.148;2023-01-04T06:06:29;16.98;;;10.20;;
71303;SDS011;59091;47.446;19.148;2023-01-04T06:08:55;20.15;;;10.38;;
71303;SDS011;59091;47.446;19.148;2023-01-04T06:11:20;21.88;;;10.70;;
71303;SDS011;59091;47.446;19.148;2023-01-04T06:13:46;20.38;;;10.95;;
71303;SDS011;59091;47.446;19.148;2023-01-04T06:16:11;21.20;;;10.40;;
71303;SDS011;59091;47.446;19.148;2023-01-04T06:18:36;23.42;;;12.20;;
71303;SDS011;59091;47.446;19.148;2023-01-04T06:21:02;22.15;;;12.40;;
71303;SDS011;59091;47.446;19.148;2023-01-04T06:23:27;23.20;;;12.75;;
71303;SDS011;59091;47.446;19.148;2023-01-04T06:25:53;26.50;;;12.55;;
71303;SDS011;59091;47.446;19.148;2023-01-04T06:28:18;29.92;;;13.95;;
71303;SDS011;59091;47.446;19.148;2023-01-04T06:30:44;30.85;;;14.20;;
71303;SDS011;59091;47.446;19.148;2023-01-04T06:33:09;32.25;;;15.13;;
71303;SDS011;59091;47.446;19.148;2023-01-04T06:35:34;31.83;;;15.82;;
71303;SDS011;59091;47.446;19.148;2023-01-04T06:38:00;27.55;;;14.80;;
71303;SDS011;59091;47.446;19.148;2023-01-04T06:40:25;32.78;;;14.82;;
71303;SDS011;59091;47.446;19.148;2023-01-04T06:42:51;28.60;;;13.70;;
71303;SDS011;59091;47.446;19.148;2023-01-04T06:45:16;26.45;;;13.98;;
71303;SDS011;59091;47.446;19.148;2023-01-04T06:47:42;27.05;;;13.13;;
71303;SDS011;59091;47.446;19.148;2023-01-04T06:50:08;24.77;;;12.45;;
71303;SDS011;59091;47.446;19.148;2023-01-04T06:52:34;22.15;;;12.10;;
71303;SDS011;59091;47.446;19.148;2023-01-04T06:54:59;28.25;;;13.90;;
71303;SDS011;59091;47.446;19.148;2023-01-04T06:57:25;28.42;;;13.15;;
71303;SDS011;59091;47.446;19.148;2023-01-04T06:59:51;25.85;;;14.27;;
71303;SDS011;59091;47.446;19.148;2023-01-04T07:02:17;33.10;;;14.98;;
71303;SDS011;59091;47.446;19.148;2023-01-04T07:04:42;33.13;;;15.30;;
71303;SDS011;59091;47.446;19.148;2023-01-04T07:07:08;27.65;;;14.68;;
71303;SDS011;59091;47.446;19.148;2023-01-04T07:09:34;30.83;;;15.07;;
71303;SDS011;59091;47.446;19.148;2023-01-04T07:12:00;31.90;;;15.63;;
71303;SDS011;59091;47.446;19.148;2023-01-04T07:14:26;30.85;;;15.65;;
71303;SDS011;59091;47.446;19.148;2023-01-04T07:16:51;30.92;;;16.65;;
71303;SDS011;59091;47.446;19.148;2023-01-04T07:19:16;31.00;;;15.95;;
71303;SDS011;59091;47.446;19.148;2023-01-04T07:21:42;32.05;;;16.80;;
71303;SDS011;59091;47.446;19.148;2023-01-04T07:24:07;30.80;;;16.05;;
71303;SDS011;59091;47.446;19.148;2023-01-04T07:26:33;29.25;;;16.50;;
71303;SDS011;59091;47.446;19.148;2023-01-04T07:28:59;30.55;;;17.20;;
71303;SDS011;59091;47.446;19.148;2023-01-04T07:31:40;34.65;;;16.50;;
71303;SDS011;59091;47.446;19.148;2023-01-04T07:34:06;32.05;;;17.08;;
71303;SDS011;59091;47.446;19.148;2023-01-04T07:36:31;35.03;;;17.42;;
71303;SDS011;59091;47.446;19.148;2023-01-04T07:39:00;34.42;;;16.77;;
71303;SDS011;59091;47.446;19.148;2023-01-04T07:41:25;36.05;;;18.13;;
71303;SDS011;59091;47.446;19.148;2023-01-04T07:43:51;35.78;;;17.67;;
71303;SDS011;59091;47.446;19.148;2023-01-04T07:46:16;34.42;;;17.88;;
71303;SDS011;59091;47.446;19.148;2023-01-04T07:48:42;35.75;;;18.42;;
71303;SDS011;59091;47.446;19.148;2023-01-04T07:51:07;35.13;;;16.48;;
71303;SDS011;59091;47.446;19.148;2023-01-04T07:53:33;36.65;;;17.02;;
71303;SDS011;59091;47.446;19.148;2023-01-04T07:55:58;33.28;;;16.95;;
71303;SDS011;59091;47.446;19.148;2023-01-04T07:58:25;35.10;;;18.50;;
71303;SDS011;59091;47.446;19.148;2023-01-04T08:00:54;45.83;;;20.17;;
71303;SDS011;59091;47.446;19.148;2023-01-04T08:03:20;51.45;;;21.67;;
71303;SDS011;59091;47.446;19.148;2023-01-04T08:05:45;44.92;;;19.67;;
71303;SDS011;59091;47.446;19.148;2023-01-04T08:08:11;45.40;;;19.27;;
71303;SDS011;59091;47.446;19.148;2023-01-04T08:10:36;34.92;;;17.15;;
71303;SDS011;59091;47.446;19.148;2023-01-04T08:13:02;45.45;;;17.75;;
71303;SDS011;59091;47.446;19.148;2023-01-04T08:15:27;29.52;;;16.20;;
71303;SDS011;59091;47.446;19.148;2023-01-04T08:17:54;30.92;;;15.70;;
71303;SDS011;59091;47.446;19.148;2023-01-04T08:20:20;29.48;;;15.10;;
71303;SDS011;59091;47.446;19.148;2023-01-04T08:22:45;28.48;;;14.48;;
71303;SDS011;59091;47.446;19.148;2023-01-04T08:25:11;32.83;;;15.18;;
71303;SDS011;59091;47.446;19.148;2023-01-04T08:27:36;27.98;;;15.55;;
71303;SDS011;59091;47.446;19.148;2023-01-04T08:30:02;24.98;;;14.50;;
71303;SDS011;59091;47.446;19.148;2023-01-04T08:32:28;36.28;;;15.57;;
71303;SDS011;59091;47.446;19.148;2023-01-04T08:34:54;28.15;;;15.13;;
71303;SDS011;59091;47.446;19.148;2023-01-04T08:37:19;28.90;;;15.55;;
71303;SDS011;59091;47.446;19.148;2023-01-04T08:39:45;29.02;;;15.65;;
71303;SDS011;59091;47.446;19.148;2023-01-04T08:42:10;28.88;;;15.55;;
71303;SDS011;59091;47.446;19.148;2023-01-04T08:44:36;34.60;;;15.82;;
71303;SDS011;59091;47.446;19.148;2023-01-04T08:47:01;33.42;;;16.05;;
71303;SDS011;59091;47.446;19.148;2023-01-04T08:49:28;28.17;;;15.65;;
71303;SDS011;59091;47.446;19.148;2023-01-04T08:51:54;29.15;;;16.48;;
71303;SDS011;59091;47.446;19.148;2023-01-04T08:54:19;33.47;;;17.73;;
71303;SDS011;59091;47.446;19.148;2023-01-04T08:56:46;31.20;;;16.95;;
71303;SDS011;59091;47.446;19.148;2023-01-04T08:59:12;36.53;;;20.15;;
71303;SDS011;59091;47.446;19.148;2023-01-04T09:01:38;36.78;;;19.15;;
71303;SDS011;59091;47.446;19.148;2023-01-04T09:04:04;32.15;;;17.65;;
71303;SDS011;59091;47.446;19.148;2023-01-04T09:06:29;35.28;;;17.40;;
71303;SDS011;59091;47.446;19.148;2023-01-04T09:08:55;34.38;;;18.33;;
71303;SDS011;59091;47.446;19.148;2023-01-04T09:11:22;37.47;;;18.67;;
71303;SDS011;59091;47.446;19.148;2023-01-04T09:13:48;34.78;;;18.90;;
71303;SDS011;59091;47.446;19.148;2023-01-04T09:16:18;42.42;;;18.58;;
71303;SDS011;59091;47.446;19.148;2023-01-04T09:18:45;37.05;;;19.15;;
71303;SDS011;59091;47.446;19.148;2023-01-04T09:21:14;33.72;;;18.35;;
71303;SDS011;59091;47.446;19.148;2023-01-04T09:23:42;33.50;;;18.67;;
71303;SDS011;59091;47.446;19.148;2023-01-04T09:26:09;29.95;;;17.20;;
71303;SDS011;59091;47.446;19.148;2023-01-04T09:28:39;33.45;;;18.65;;
71303;SDS011;59091;47.446;19.148;2023-01-04T09:31:06;35.45;;;19.67;;
71303;SDS011;59091;47.446;19.148;2023-01-04T09:33:42;41.40;;;20.63;;
71303;SDS011;59091;47.446;19.148;2023-01-04T09:36:10;39.00;;;20.38;;
71303;SDS011;59091;47.446;19.148;2023-01-04T09:38:38;40.25;;;19.73;;
71303;SDS011;59091;47.446;19.148;2023-01-04T09:43:45;37.25;;;19.73;;
71303;SDS011;59091;47.446;19.148;2023-01-04T09:49:02;33.05;;;17.95;;
71303;SDS011;59091;47.446;19.148;2023-01-04T09:51:41;33.00;;;18.42;;
71303;SDS011;59091;47.446;19.148;2023-01-04T09:54:16;31.42;;;17.98;;
71303;SDS011;59091;47.446;19.148;2023-01-04T09:56:48;35.50;;;18.73;;
71303;SDS011;59091;47.446;19.148;2023-01-04T09:59:16;34.30;;;17.95;;
71303;SDS011;59091;47.446;19.148;2023-01-04T10:01:51;35.03;;;18.35;;
71303;SDS011;59091;47.446;19.148;2023-01-04T10:04:28;35.58;;;17.73;;
71303;SDS011;59091;47.446;19.148;2023-01-04T10:06:59;35.15;;;19.17;;
71303;SDS011;59091;47.446;19.148;2023-01-04T10:09:25;32.47;;;17.80;;
71303;SDS011;59091;47.446;19.148;2023-01-04T10:33:56;30.60;;;17.25;;
71303;SDS011;59091;47.446;19.148;2023-01-04T10:36:28;34.42;;;18.67;;
71303;SDS011;59091;47.446;19.148;2023-01-04T10:39:10;35.38;;;17.92;;
71303;SDS011;59091;47.446;19.148;2023-01-04T10:42:05;34.25;;;18.85;;
71303;SDS011;59091;47.446;19.148;2023-01-04T10:44:39;33.85;;;19.00;;
71303;SDS011;59091;47.446;19.148;2023-01-04T10:49:51;30.50;;;17.42;;
71303;SDS011;59091;47.446;19.148;2023-01-04T10:52:24;26.55;;;15.45;;
71303;SDS011;59091;47.446;19.148;2023-01-04T10:55:00;27.60;;;14.73;;
71303;SDS011;59091;47.446;19.148;2023-01-04T11:00:38;28.08;;;16.02;;
71303;SDS011;59091;47.446;19.148;2023-01-04T11:03:13;31.77;;;16.55;;
71303;SDS011;59091;47.446;19.148;2023-01-04T11:08:46;28.98;;;16.85;;
71303;SDS011;59091;47.446;19.148;2023-01-04T11:11:39;25.25;;;15.15;;
71303;SDS011;59091;47.446;19.148;2023-01-04T11:14:07;31.90;;;15.82;;
71303;SDS011;59091;47.446;19.148;2023-01-04T11:16:34;29.60;;;16.45;;
71303;SDS011;59091;47.446;19.148;2023-01-04T11:19:01;28.10;;;15.63;;
71303;SDS011;59091;47.446;19.148;2023-01-04T11:21:30;28.80;;;16.33;;
71303;SDS011;59091;47.446;19.148;2023-01-04T11:24:01;26.53;;;16.03;;
71303;SDS011;59091;47.446;19.148;2023-01-04T11:26:32;29.38;;;16.63;;
71303;SDS011;59091;47.446;19.148;2023-01-04T11:29:06;28.23;;;16.13;;
71303;SDS011;59091;47.446;19.148;2023-01-04T11:31:47;28.17;;;16.00;;
71303;SDS011;59091;47.446;19.148;2023-01-04T11:34:19;28.45;;;16.83;;
71303;SDS011;59091;47.446;19.148;2023-01-04T11:37:35;27.00;;;15.68;;
71303;SDS011;59091;47.446;19.148;2023-01-04T11:40:16;27.90;;;15.73;;
71303;SDS011;59091;47.446;19.148;2023-01-04T11:42:43;29.90;;;15.38;;
71303;SDS011;59091;47.446;19.148;2023-01-04T11:45:22;26.38;;;15.40;;
71303;SDS011;59091;47.446;19.148;2023-01-04T11:47:52;24.90;;;14.70;;
71303;SDS011;59091;47.446;19.148;2023-01-04T11:50:33;24.45;;;14.82;;
71303;SDS011;59091;47.446;19.148;2023-01-04T11:52:58;22.50;;;13.00;;
71303;SDS011;59091;47.446;19.148;2023-01-04T11:55:26;20.42;;;12.02;;
71303;SDS011;59091;47.446;19.148;2023-01-04T11:58:04;20.40;;;10.93;;
71303;SDS011;59091;47.446;19.148;2023-01-04T12:00:35;17.20;;;9.98;;
71303;SDS011;59091;47.446;19.148;2023-01-04T12:03:11;18.13;;;10.95;;
71303;SDS011;59091;47.446;19.148;2023-01-04T12:05:38;18.58;;;10.38;;
71303;SDS011;59091;47.446;19.148;2023-01-04T12:08:03;25.15;;;10.68;;
71303;SDS011;59091;47.446;19.148;2023-01-04T12:10:29;19.25;;;10.75;;
71303;SDS011;59091;47.446;19.148;2023-01-04T12:12:55;18.23;;;9.23;;
71303;SDS011;59091;47.446;19.148;2023-01-04T12:15:29;15.85;;;9.10;;
71303;SDS011;59091;47.446;19.148;2023-01-04T12:18:05;15.18;;;9.63;;
71303;SDS011;59091;47.446;19.148;2023-01-04T12:20:37;16.27;;;9.52;;
71303;SDS011;59091;47.446;19.148;2023-01-04T12:23:02;16.45;;;10.40;;
71303;SDS011;59091;47.446;19.148;2023-01-04T12:25:37;15.82;;;9.40;;
71303;SDS011;59091;47.446;19.148;2023-01-04T12:28:25;15.65;;;10.35;;
71303;SDS011;59091;47.446;19.148;2023-01-04T12:36:17;21.95;;;10.07;;
71303;SDS011;59091;47.446;19.148;2023-01-04T12:44:55;17.92;;;11.38;;
71303;SDS011;59091;47.446;19.148;2023-01-04T12:47:00;16.95;;;11.30;;
71303;SDS011;59091;47.446;19.148;2023-01-04T12:49:58;24.08;;;10.90;;
71303;SDS011;59091;47.446;19.148;2023-01-04T13:04:56;24.83;;;10.55;;
71303;SDS011;59091;47.446;19.148;2023-01-04T13:07:28;26.80;;;9.93;;
71303;SDS011;59091;47.446;19.148;2023-01-04T13:09:57;18.00;;;10.85;;
71303;SDS011;59091;47.446;19.148;2023-01-04T13:12:42;15.90;;;9.55;;
71303;SDS011;59091;47.446;19.148;2023-01-04T13:15:40;14.23;;;9.05;;
71303;SDS011;59091;47.446;19.148;2023-01-04T13:23:51;18.70;;;10.63;;
71303;SDS011;59091;47.446;19.148;2023-01-04T13:39:39;18.35;;;9.15;;
71303;SDS011;59091;47.446;19.148;2023-01-04T13:42:17;16.85;;;8.43;;
71303;SDS011;59091;47.446;19.148;2023-01-04T13:45:12;14.77;;;9.43;;
71303;SDS011;59091;47.446;19.148;2023-01-04T13:48:02;18.33;;;9.82;;
71303;SDS011;59091;47.446;19.148;2023-01-04T13:50:36;30.83;;;11.82;;
71303;SDS011;59091;47.446;19.148;2023-01-04T13:53:18;18.42;;;10.80;;
71303;SDS011;59091;47.446;19.148;2023-01-04T13:55:48;27.98;;;11.80;;
71303;SDS011;59091;47.446;19.148;2023-01-04T13:58:25;19.65;;;11.93;;
71303;SDS011;59091;47.446;19.148;2023-01-04T14:08:36;23.80;;;12.50;;
71303;SDS011;59091;47.446;19.148;2023-01-04T14:11:11;24.17;;;13.23;;
71303;SDS011;59091;47.446;19.148;2023-01-04T14:14:01;29.10;;;13.38;;
71303;SDS011;59091;47.446;19.148;2023-01-04T14:16:27;24.88;;;13.60;;
71303;SDS011;59091;47.446;19.148;2023-01-04T14:18:52;31.02;;;13.02;;
71303;SDS011;59091;47.446;19.148;2023-01-04T14:21:18;31.60;;;14.98;;
71303;SDS011;59091;47.446;19.148;2023-01-04T14:23:58;22.90;;;13.60;;
71303;SDS011;59091;47.446;19.148;2023-01-04T14:26:28;28.77;;;13.63;;
71303;SDS011;59091;47.446;19.148;2023-01-04T14:28:57;28.73;;;15.13;;
71303;SDS011;59091;47.446;19.148;2023-01-04T14:31:27;26.63;;;14.50;;
71303;SDS011;59091;47.446;19.148;2023-01-04T14:33:55;26.02;;;14.07;;
71303;SDS011;59091;47.446;19.148;2023-01-04T14:36:21;46.38;;;17.60;;
71303;SDS011;59091;47.446;19.148;2023-01-04T14:41:35;33.10;;;16.17;;
71303;SDS011;59091;47.446;19.148;2023-01-04T14:46:41;41.90;;;21.27;;
71303;SDS011;59091;47.446;19.148;2023-01-04T14:49:10;49.03;;;24.48;;
71303;SDS011;59091;47.446;19.148;2023-01-04T14:51:44;50.70;;;26.08;;
71303;SDS011;59091;47.446;19.148;2023-01-04T14:54:18;47.33;;;24.45;;
71303;SDS011;59091;47.446;19.148;2023-01-04T14:56:45;49.92;;;26.15;;
71303;SDS011;59091;47.446;19.148;2023-01-04T14:59:10;49.92;;;25.25;;
71303;SDS011;59091;47.446;19.148;2023-01-04T15:01:36;42.33;;;22.33;;
71303;SDS011;59091;47.446;19.148;2023-01-04T15:04:02;42.25;;;20.67;;
71303;SDS011;59091;47.446;19.148;2023-01-04T15:06:28;36.75;;;19.35;;
71303;SDS011;59091;47.446;19.148;2023-01-04T15:08:54;32.47;;;18.15;;
71303;SDS011;59091;47.446;19.148;2023-01-04T15:11:19;34.83;;;18.80;;
71303;SDS011;59091;47.446;19.148;2023-01-04T15:13:45;35.22;;;18.95;;
71303;SDS011;59091;47.446;19.148;2023-01-04T15:16:11;31.67;;;18.10;;
71303;SDS011;59091;47.446;19.148;2023-01-04T15:18:39;35.85;;;18.63;;
71303;SDS011;59091;47.446;19.148;2023-01-04T15:21:05;35.63;;;17.50;;
71303;SDS011;59091;47.446;19.148;2023-01-04T15:23:31;33.25;;;17.90;;
71303;SDS011;59091;47.446;19.148;2023-01-04T15:25:56;35.50;;;18.10;;
71303;SDS011;59091;47.446;19.148;2023-01-04T15:28:25;29.30;;;17.20;;
71303;SDS011;59091;47.446;19.148;2023-01-04T15:30:51;39.08;;;18.70;;
71303;SDS011;59091;47.446;19.148;2023-01-04T15:33:16;40.00;;;19.60;;
71303;SDS011;59091;47.446;19.148;2023-01-04T15:35:42;39.25;;;20.23;;
71303;SDS011;59091;47.446;19.148;2023-01-04T15:38:07;43.28;;;20.55;;
71303;SDS011;59091;47.446;19.148;2023-01-04T15:40:33;39.95;;;19.10;;
71303;SDS011;59091;47.446;19.148;2023-01-04T15:43:00;39.72;;;19.20;;
71303;SDS011;59091;47.446;19.148;2023-01-04T15:45:26;56.25;;;26.83;;
71303;SDS011;59091;47.446;19.148;2023-01-04T15:47:53;56.25;;;27.30;;
71303;SDS011;59091;47.446;19.148;2023-01-04T15:50:21;55.15;;;24.60;;
71303;SDS011;59091;47.446;19.148;2023-01-04T15:52:47;46.85;;;23.48;;
71303;SDS011;59091;47.446;19.148;2023-01-04T15:55:12;39.00;;;20.52;;
71303;SDS011;59091;47.446;19.148;2023-01-04T15:57:38;40.63;;;19.05;;
71303;SDS011;59091;47.446;19.148;2023-01-04T16:00:04;40.42;;;19.40;;
71303;SDS011;59091;47.446;19.148;2023-01-04T16:02:30;42.17;;;18.35;;
71303;SDS011;59091;47.446;19.148;2023-01-04T16:04:56;35.35;;;19.27;;
71303;SDS011;59091;47.446;19.148;2023-01-04T16:07:21;35.85;;;19.88;;
71303;SDS011;59091;47.446;19.148;2023-01-04T16:09:47;35.70;;;19.92;;
71303;SDS011;59091;47.446;19.148;2023-01-04T16:12:12;37.63;;;19.15;;
71303;SDS011;59091;47.446;19.148;2023-01-04T16:17:21;34.75;;;18.40;;
71303;SDS011;59091;47.446;19.148;2023-01-04T16:19:47;34.22;;;17.75;;
71303;SDS011;59091;47.446;19.148;2023-01-04T16:22:12;34.10;;;18.17;;
71303;SDS011;59091;47.446;19.148;2023-01-04T16:24:38;36.03;;;19.83;;
71303;SDS011;59091;47.446;19.148;2023-01-04T16:27:03;36.22;;;19.42;;
71303;SDS011;59091;47.446;19.148;2023-01-04T16:29:29;39.60;;;20.63;;
71303;SDS011;59091;47.446;19.148;2023-01-04T16:31:54;36.45;;;19.80;;
71303;SDS011;59091;47.446;19.148;2023-01-04T16:34:19;43.58;;;20.70;;
71303;SDS011;59091;47.446;19.148;2023-01-04T16:36:47;38.25;;;20.58;;
71303;SDS011;59091;47.446;19.148;2023-01-04T16:39:13;53.80;;;27.13;;
71303;SDS011;59091;47.446;19.148;2023-01-04T16:41:38;58.08;;;29.02;;
71303;SDS011;59091;47.446;19.148;2023-01-04T16:44:04;59.78;;;28.73;;
71303;SDS011;59091;47.446;19.148;2023-01-04T16:46:31;60.47;;;29.10;;